sensor_id;sensor_type;location;lat;lon;timestamp;P1;durP1;ratioP1;P2;durP2;ratioP2
9224;SDS011;4647;48.072;11.616;2024-03-22T00:02:22;51.27;;;41.50;;
9224;SDS011;4647;48.072;11.616;2024-03-22T00:04:48;44.27;;;39.60;;
9224;SDS011;4647;48.072;11.616;2024-03-22T00:07:14;53.07;;;43.73;;
9224;SDS011;4647;48.072;11.616;2024-03-22T00:09:40;41.83;;;37.40;;
9224;SDS011;4647;48.072;11.616;2024-03-22T00:12:06;42.17;;;37.57;;
9224;SDS011;4647;48.072;11.616;2024-03-22T00:14:32;51.67;;;41.93;;
9224;SDS011;4647;48.072;11.616;2024-03-22T00:17:00;44.67;;;39.20;;
9224;SDS011;4647;48.072;11.616;2024-03-22T00:19:26;41.50;;;35.83;;
9224;SDS011;4647;48.072;11.616;2024-03-22T00:21:52;45.47;;;38.17;;
9224;SDS011;4647;48.072;11.616;2024-03-22T00:24:18;45.07;;;36.87;;
9224;SDS011;4647;48.072;11.616;2024-03-22T00:26:44;43.23;;;38.30;;
9224;SDS011;4647;48.072;11.616;2024-03-22T00:29:09;43.10;;;36.87;;
9224;SDS011;4647;48.072;11.616;2024-03-22T00:31:35;41.33;;;36.87;;
9224;SDS011;4647;48.072;11.616;2024-03-22T00:34:04;40.63;;;36.33;;
9224;SDS011;4647;48.072;11.616;2024-03-22T00:36:29;46.70;;;38.17;;
9224;SDS011;4647;48.072;11.616;2024-03-22T00:38:55;50.03;;;40.80;;
9224;SDS011;4647;48.072;11.616;2024-03-22T00:41:21;50.13;;;42.80;;
9224;SDS011;4647;48.072;11.616;2024-03-22T00:43:47;44.23;;;38.47;;
9224;SDS011;4647;48.072;11.616;2024-03-22T00:46:13;43.00;;;38.33;;
9224;SDS011;4647;48.072;11.616;2024-03-22T00:48:38;42.77;;;37.80;;
9224;SDS011;4647;48.072;11.616;2024-03-22T00:51:07;50.30;;;42.57;;
9224;SDS011;4647;48.072;11.616;2024-03-22T00:53:33;46.57;;;40.97;;
9224;SDS011;4647;48.072;11.616;2024-03-22T00:55:58;37.60;;;33.73;;
9224;SDS011;4647;48.072;11.616;2024-03-22T00:58:25;50.40;;;41.20;;
9224;SDS011;4647;48.072;11.616;2024-03-22T01:00:52;35.77;;;31.83;;
9224;SDS011;4647;48.072;11.616;2024-03-22T01:03:18;35.90;;;32.00;;
9224;SDS011;4647;48.072;11.616;2024-03-22T01:05:43;37.40;;;33.50;;
9224;SDS011;4647;48.072;11.616;2024-03-22T01:08:12;37.27;;;33.30;;
9224;SDS011;4647;48.072;11.616;2024-03-22T01:10:38;35.33;;;31.63;;
9224;SDS011;4647;48.072;11.616;2024-03-22T01:13:04;37.00;;;32.30;;
9224;SDS011;4647;48.072;11.616;2024-03-22T01:15:30;32.23;;;28.73;;
9224;SDS011;4647;48.072;11.616;2024-03-22T01:17:56;33.23;;;29.93;;
9224;SDS011;4647;48.072;11.616;2024-03-22T01:20:21;31.43;;;28.13;;
9224;SDS011;4647;48.072;11.616;2024-03-22T01:22:47;32.27;;;28.70;;
9224;SDS011;4647;48.072;11.616;2024-03-22T01:25:16;32.03;;;28.53;;
9224;SDS011;4647;48.072;11.616;2024-03-22T01:27:42;28.27;;;25.53;;
9224;SDS011;4647;48.072;11.616;2024-03-22T01:30:08;32.60;;;29.27;;
9224;SDS011;4647;48.072;11.616;2024-03-22T01:32:34;34.30;;;29.50;;
9224;SDS011;4647;48.072;11.616;2024-03-22T01:35:00;34.10;;;30.50;;
9224;SDS011;4647;48.072;11.616;2024-03-22T01:37:26;30.43;;;27.23;;
9224;SDS011;4647;48.072;11.616;2024-03-22T01:39:52;35.43;;;31.70;;
9224;SDS011;4647;48.072;11.616;2024-03-22T01:42:20;48.93;;;39.27;;
9224;SDS011;4647;48.072;11.616;2024-03-22T01:44:46;34.63;;;30.93;;
9224;SDS011;4647;48.072;11.616;2024-03-22T01:47:14;40.47;;;34.80;;
9224;SDS011;4647;48.072;11.616;2024-03-22T01:49:40;46.97;;;37.27;;
9224;SDS011;4647;48.072;11.616;2024-03-22T01:52:06;46.13;;;39.37;;
9224;SDS011;4647;48.072;11.616;2024-03-22T01:54:32;47.00;;;39.93;;
9224;SDS011;4647;48.072;11.616;2024-03-22T01:56:58;53.67;;;42.70;;
9224;SDS011;4647;48.072;11.616;2024-03-22T01:59:26;42.40;;;35.50;;
9224;SDS011;4647;48.072;11.616;2024-03-22T02:01:53;48.33;;;39.53;;
9224;SDS011;4647;48.072;11.616;2024-03-22T02:04:19;38.63;;;34.57;;
9224;SDS011;4647;48.072;11.616;2024-03-22T02:06:45;54.87;;;41.90;;
9224;SDS011;4647;48.072;11.616;2024-03-22T02:09:11;42.10;;;37.50;;
9224;SDS011;4647;48.072;11.616;2024-03-22T02:11:37;47.90;;;40.20;;
9224;SDS011;4647;48.072;11.616;2024-03-22T02:14:04;39.63;;;35.30;;
9224;SDS011;4647;48.072;11.616;2024-03-22T02:16:33;50.13;;;40.97;;
9224;SDS011;4647;48.072;11.616;2024-03-22T02:18:59;47.77;;;40.10;;
9224;SDS011;4647;48.072;11.616;2024-03-22T02:21:25;39.40;;;34.60;;
9224;SDS011;4647;48.072;11.616;2024-03-22T02:23:53;43.53;;;37.80;;
9224;SDS011;4647;48.072;11.616;2024-03-22T02:26:19;42.53;;;36.47;;
9224;SDS011;4647;48.072;11.616;2024-03-22T02:28:45;38.60;;;34.50;;
9224;SDS011;4647;48.072;11.616;2024-03-22T02:31:10;37.17;;;33.23;;
9224;SDS011;4647;48.072;11.616;2024-03-22T02:33:36;38.13;;;34.03;;
9224;SDS011;4647;48.072;11.616;2024-03-22T02:36:02;41.97;;;37.40;;
9224;SDS011;4647;48.072;11.616;2024-03-22T02:38:28;41.43;;;36.17;;
9224;SDS011;4647;48.072;11.616;2024-03-22T02:40:57;32.67;;;29.23;;
9224;SDS011;4647;48.072;11.616;2024-03-22T02:43:24;38.73;;;33.03;;
9224;SDS011;4647;48.072;11.616;2024-03-22T02:45:50;37.13;;;30.57;;
9224;SDS011;4647;48.072;11.616;2024-03-22T02:48:15;35.07;;;31.57;;
9224;SDS011;4647;48.072;11.616;2024-03-22T02:50:41;36.30;;;31.90;;
9224;SDS011;4647;48.072;11.616;2024-03-22T02:53:07;49.63;;;40.17;;
9224;SDS011;4647;48.072;11.616;2024-03-22T02:55:36;44.40;;;39.17;;
9224;SDS011;4647;48.072;11.616;2024-03-22T02:58:06;49.73;;;41.97;;
9224;SDS011;4647;48.072;11.616;2024-03-22T03:00:35;38.43;;;33.73;;
9224;SDS011;4647;48.072;11.616;2024-03-22T03:03:01;34.53;;;31.03;;
9224;SDS011;4647;48.072;11.616;2024-03-22T03:05:27;31.70;;;28.40;;
9224;SDS011;4647;48.072;11.616;2024-03-22T03:07:53;32.40;;;29.20;;
9224;SDS011;4647;48.072;11.616;2024-03-22T03:10:19;40.63;;;34.10;;
9224;SDS011;4647;48.072;11.616;2024-03-22T03:12:44;32.97;;;29.57;;
9224;SDS011;4647;48.072;11.616;2024-03-22T03:15:13;31.57;;;28.30;;
9224;SDS011;4647;48.072;11.616;2024-03-22T03:17:39;32.43;;;28.93;;
9224;SDS011;4647;48.072;11.616;2024-03-22T03:20:05;33.63;;;28.40;;
9224;SDS011;4647;48.072;11.616;2024-03-22T03:22:33;30.33;;;27.13;;
9224;SDS011;4647;48.072;11.616;2024-03-22T03:24:59;38.23;;;33.00;;
9224;SDS011;4647;48.072;11.616;2024-03-22T03:27:24;30.43;;;27.23;;
9224;SDS011;4647;48.072;11.616;2024-03-22T03:29:50;32.33;;;28.20;;
9224;SDS011;4647;48.072;11.616;2024-03-22T03:32:19;30.73;;;27.60;;
9224;SDS011;4647;48.072;11.616;2024-03-22T03:34:44;28.23;;;25.37;;
9224;SDS011;4647;48.072;11.616;2024-03-22T03:37:10;33.00;;;29.50;;
9224;SDS011;4647;48.072;11.616;2024-03-22T03:39:36;29.27;;;26.37;;
9224;SDS011;4647;48.072;11.616;2024-03-22T03:42:02;32.73;;;29.47;;
9224;SDS011;4647;48.072;11.616;2024-03-22T03:44:28;29.87;;;26.77;;
9224;SDS011;4647;48.072;11.616;2024-03-22T03:46:54;29.47;;;26.67;;
9224;SDS011;4647;48.072;11.616;2024-03-22T03:49:22;37.30;;;33.23;;
9224;SDS011;4647;48.072;11.616;2024-03-22T03:51:48;32.33;;;29.07;;
9224;SDS011;4647;48.072;11.616;2024-03-22T03:54:14;41.77;;;36.60;;
9224;SDS011;4647;48.072;11.616;2024-03-22T03:56:39;33.33;;;30.03;;
9224;SDS011;4647;48.072;11.616;2024-03-22T03:59:05;39.00;;;33.03;;
9224;SDS011;4647;48.072;11.616;2024-03-22T04:01:32;30.50;;;27.47;;
9224;SDS011;4647;48.072;11.616;2024-03-22T04:03:58;35.27;;;31.63;;
9224;SDS011;4647;48.072;11.616;2024-03-22T04:06:26;36.03;;;32.27;;
9224;SDS011;4647;48.072;11.616;2024-03-22T04:08:52;38.70;;;34.57;;
9224;SDS011;4647;48.072;11.616;2024-03-22T04:11:18;36.27;;;32.47;;
9224;SDS011;4647;48.072;11.616;2024-03-22T04:13:44;51.40;;;40.50;;
9224;SDS011;4647;48.072;11.616;2024-03-22T04:16:09;43.53;;;37.87;;
9224;SDS011;4647;48.072;11.616;2024-03-22T04:18:35;36.50;;;32.60;;
9224;SDS011;4647;48.072;11.616;2024-03-22T04:21:01;35.73;;;32.13;;
9224;SDS011;4647;48.072;11.616;2024-03-22T04:23:29;35.67;;;32.07;;
9224;SDS011;4647;48.072;11.616;2024-03-22T04:25:56;34.10;;;30.47;;
9224;SDS011;4647;48.072;11.616;2024-03-22T04:28:23;43.50;;;36.03;;
9224;SDS011;4647;48.072;11.616;2024-03-22T04:30:58;31.57;;;28.47;;
9224;SDS011;4647;48.072;11.616;2024-03-22T04:33:26;34.23;;;30.57;;
9224;SDS011;4647;48.072;11.616;2024-03-22T04:35:52;43.80;;;36.57;;
9224;SDS011;4647;48.072;11.616;2024-03-22T04:38:18;40.57;;;35.37;;
9224;SDS011;4647;48.072;11.616;2024-03-22T04:40:47;35.63;;;31.80;;
9224;SDS011;4647;48.072;11.616;2024-03-22T04:43:13;48.03;;;38.63;;
9224;SDS011;4647;48.072;11.616;2024-03-22T04:45:41;34.73;;;31.07;;
9224;SDS011;4647;48.072;11.616;2024-03-22T04:48:07;37.40;;;33.37;;
9224;SDS011;4647;48.072;11.616;2024-03-22T04:50:33;37.10;;;32.97;;
9224;SDS011;4647;48.072;11.616;2024-03-22T04:52:59;33.03;;;29.50;;
9224;SDS011;4647;48.072;11.616;2024-03-22T04:55:25;34.07;;;30.13;;
9224;SDS011;4647;48.072;11.616;2024-03-22T04:57:53;33.47;;;29.87;;
9224;SDS011;4647;48.072;11.616;2024-03-22T05:00:19;35.60;;;31.60;;
9224;SDS011;4647;48.072;11.616;2024-03-22T05:02:45;31.97;;;28.57;;
9224;SDS011;4647;48.072;11.616;2024-03-22T05:05:11;30.63;;;27.53;;
9224;SDS011;4647;48.072;11.616;2024-03-22T05:07:37;31.77;;;28.30;;
9224;SDS011;4647;48.072;11.616;2024-03-22T05:10:03;31.17;;;27.77;;
9224;SDS011;4647;48.072;11.616;2024-03-22T05:12:29;34.43;;;30.53;;
9224;SDS011;4647;48.072;11.616;2024-03-22T05:14:58;37.03;;;33.03;;
9224;SDS011;4647;48.072;11.616;2024-03-22T05:17:23;40.37;;;33.50;;
9224;SDS011;4647;48.072;11.616;2024-03-22T05:19:49;31.83;;;28.60;;
9224;SDS011;4647;48.072;11.616;2024-03-22T05:22:15;29.30;;;26.27;;
9224;SDS011;4647;48.072;11.616;2024-03-22T05:24:41;32.07;;;28.60;;
9224;SDS011;4647;48.072;11.616;2024-03-22T05:27:07;27.53;;;24.63;;
9224;SDS011;4647;48.072;11.616;2024-03-22T05:29:33;25.73;;;23.33;;
9224;SDS011;4647;48.072;11.616;2024-03-22T05:32:01;33.77;;;30.13;;
9224;SDS011;4647;48.072;11.616;2024-03-22T05:34:27;26.73;;;24.07;;
9224;SDS011;4647;48.072;11.616;2024-03-22T05:36:53;28.30;;;25.33;;
9224;SDS011;4647;48.072;11.616;2024-03-22T05:39:19;28.50;;;25.70;;
9224;SDS011;4647;48.072;11.616;2024-03-22T05:41:44;25.60;;;23.10;;
9224;SDS011;4647;48.072;11.616;2024-03-22T05:44:11;23.43;;;21.07;;
9224;SDS011;4647;48.072;11.616;2024-03-22T05:46:36;23.43;;;21.03;;
9224;SDS011;4647;48.072;11.616;2024-03-22T05:49:05;23.27;;;20.77;;
9224;SDS011;4647;48.072;11.616;2024-03-22T05:51:31;26.40;;;23.60;;
9224;SDS011;4647;48.072;11.616;2024-03-22T05:53:56;22.67;;;20.23;;
9224;SDS011;4647;48.072;11.616;2024-03-22T05:56:22;25.73;;;19.50;;
9224;SDS011;4647;48.072;11.616;2024-03-22T05:58:48;22.33;;;20.13;;
9224;SDS011;4647;48.072;11.616;2024-03-22T06:01:14;23.77;;;21.17;;
9224;SDS011;4647;48.072;11.616;2024-03-22T06:03:40;21.80;;;19.67;;
9224;SDS011;4647;48.072;11.616;2024-03-22T06:06:08;23.43;;;21.00;;
9224;SDS011;4647;48.072;11.616;2024-03-22T06:08:34;22.87;;;19.83;;
9224;SDS011;4647;48.072;11.616;2024-03-22T06:11:00;20.80;;;18.73;;
9224;SDS011;4647;48.072;11.616;2024-03-22T06:13:26;19.40;;;17.50;;
9224;SDS011;4647;48.072;11.616;2024-03-22T06:15:53;19.03;;;17.23;;
9224;SDS011;4647;48.072;11.616;2024-03-22T06:18:19;20.13;;;17.60;;
9224;SDS011;4647;48.072;11.616;2024-03-22T06:20:45;19.43;;;17.53;;
9224;SDS011;4647;48.072;11.616;2024-03-22T06:23:13;22.13;;;19.00;;
9224;SDS011;4647;48.072;11.616;2024-03-22T06:25:39;19.87;;;17.87;;
9224;SDS011;4647;48.072;11.616;2024-03-22T06:28:05;18.50;;;16.80;;
9224;SDS011;4647;48.072;11.616;2024-03-22T06:30:31;19.27;;;17.20;;
9224;SDS011;4647;48.072;11.616;2024-03-22T06:32:56;19.30;;;17.27;;
9224;SDS011;4647;48.072;11.616;2024-03-22T06:35:22;21.07;;;18.97;;
9224;SDS011;4647;48.072;11.616;2024-03-22T06:37:48;18.87;;;16.93;;
9224;SDS011;4647;48.072;11.616;2024-03-22T06:40:17;21.93;;;18.57;;
9224;SDS011;4647;48.072;11.616;2024-03-22T06:42:43;21.60;;;19.40;;
9224;SDS011;4647;48.072;11.616;2024-03-22T06:45:09;20.70;;;18.60;;
9224;SDS011;4647;48.072;11.616;2024-03-22T06:47:35;19.07;;;17.23;;
9224;SDS011;4647;48.072;11.616;2024-03-22T06:50:01;19.13;;;17.13;;
9224;SDS011;4647;48.072;11.616;2024-03-22T06:52:26;18.63;;;16.73;;
9224;SDS011;4647;48.072;11.616;2024-03-22T06:54:52;17.23;;;15.53;;
9224;SDS011;4647;48.072;11.616;2024-03-22T06:57:21;21.07;;;19.03;;
9224;SDS011;4647;48.072;11.616;2024-03-22T06:59:46;17.33;;;15.60;;
9224;SDS011;4647;48.072;11.616;2024-03-22T07:02:13;17.90;;;16.00;;
9224;SDS011;4647;48.072;11.616;2024-03-22T07:04:39;16.63;;;14.93;;
9224;SDS011;4647;48.072;11.616;2024-03-22T07:07:04;15.20;;;13.70;;
9224;SDS011;4647;48.072;11.616;2024-03-22T07:09:32;16.13;;;14.47;;
9224;SDS011;4647;48.072;11.616;2024-03-22T07:11:58;15.57;;;13.97;;
9224;SDS011;4647;48.072;11.616;2024-03-22T07:14:26;15.30;;;13.80;;
9224;SDS011;4647;48.072;11.616;2024-03-22T07:16:52;15.57;;;13.87;;
9224;SDS011;4647;48.072;11.616;2024-03-22T07:19:18;15.47;;;13.90;;
9224;SDS011;4647;48.072;11.616;2024-03-22T07:21:44;14.23;;;12.93;;
9224;SDS011;4647;48.072;11.616;2024-03-22T07:24:10;13.23;;;11.93;;
9224;SDS011;4647;48.072;11.616;2024-03-22T07:26:35;13.00;;;11.60;;
9224;SDS011;4647;48.072;11.616;2024-03-22T07:29:01;11.87;;;10.63;;
9224;SDS011;4647;48.072;11.616;2024-03-22T07:31:30;12.57;;;11.37;;
9224;SDS011;4647;48.072;11.616;2024-03-22T07:33:56;12.90;;;11.70;;
9224;SDS011;4647;48.072;11.616;2024-03-22T07:36:21;12.17;;;11.07;;
9224;SDS011;4647;48.072;11.616;2024-03-22T07:38:47;13.73;;;10.83;;
9224;SDS011;4647;48.072;11.616;2024-03-22T07:41:13;11.17;;;9.73;;
9224;SDS011;4647;48.072;11.616;2024-03-22T07:43:40;10.13;;;9.07;;
9224;SDS011;4647;48.072;11.616;2024-03-22T07:46:06;10.97;;;9.23;;
9224;SDS011;4647;48.072;11.616;2024-03-22T07:48:34;11.63;;;8.40;;
9224;SDS011;4647;48.072;11.616;2024-03-22T07:51:00;11.60;;;10.40;;
9224;SDS011;4647;48.072;11.616;2024-03-22T07:53:26;15.37;;;12.23;;
9224;SDS011;4647;48.072;11.616;2024-03-22T07:55:52;9.27;;;8.37;;
9224;SDS011;4647;48.072;11.616;2024-03-22T07:58:19;8.77;;;7.87;;
9224;SDS011;4647;48.072;11.616;2024-03-22T08:00:45;9.47;;;8.47;;
9224;SDS011;4647;48.072;11.616;2024-03-22T08:03:13;8.23;;;7.57;;
9224;SDS011;4647;48.072;11.616;2024-03-22T08:05:42;8.93;;;7.70;;
9224;SDS011;4647;48.072;11.616;2024-03-22T08:08:08;8.50;;;7.70;;
9224;SDS011;4647;48.072;11.616;2024-03-22T08:10:34;9.57;;;7.17;;
9224;SDS011;4647;48.072;11.616;2024-03-22T08:13:00;7.80;;;7.00;;
9224;SDS011;4647;48.072;11.616;2024-03-22T08:15:26;7.80;;;7.00;;
9224;SDS011;4647;48.072;11.616;2024-03-22T08:17:52;7.73;;;6.83;;
9224;SDS011;4647;48.072;11.616;2024-03-22T08:20:18;10.67;;;9.77;;
9224;SDS011;4647;48.072;11.616;2024-03-22T08:22:46;9.47;;;7.03;;
9224;SDS011;4647;48.072;11.616;2024-03-22T08:25:12;7.83;;;7.03;;
9224;SDS011;4647;48.072;11.616;2024-03-22T08:27:38;7.20;;;6.57;;
9224;SDS011;4647;48.072;11.616;2024-03-22T08:30:04;7.63;;;6.33;;
9224;SDS011;4647;48.072;11.616;2024-03-22T08:32:31;8.47;;;6.47;;
9224;SDS011;4647;48.072;11.616;2024-03-22T08:34:57;6.50;;;5.77;;
9224;SDS011;4647;48.072;11.616;2024-03-22T08:37:23;7.80;;;5.70;;
9224;SDS011;4647;48.072;11.616;2024-03-22T08:39:51;6.40;;;5.70;;
9224;SDS011;4647;48.072;11.616;2024-03-22T08:42:17;6.17;;;5.27;;
9224;SDS011;4647;48.072;11.616;2024-03-22T08:44:43;5.07;;;4.57;;
9224;SDS011;4647;48.072;11.616;2024-03-22T08:47:08;6.17;;;5.43;;
9224;SDS011;4647;48.072;11.616;2024-03-22T08:49:34;7.00;;;5.27;;
9224;SDS011;4647;48.072;11.616;2024-03-22T08:52:01;6.30;;;5.17;;
9224;SDS011;4647;48.072;11.616;2024-03-22T08:54:27;6.50;;;4.87;;
9224;SDS011;4647;48.072;11.616;2024-03-22T08:56:55;6.60;;;5.27;;
9224;SDS011;4647;48.072;11.616;2024-03-22T08:59:21;6.80;;;4.90;;
9224;SDS011;4647;48.072;11.616;2024-03-22T09:01:47;5.57;;;4.87;;
9224;SDS011;4647;48.072;11.616;2024-03-22T09:04:13;5.50;;;5.00;;
9224;SDS011;4647;48.072;11.616;2024-03-22T09:06:40;6.87;;;4.73;;
9224;SDS011;4647;48.072;11.616;2024-03-22T09:09:05;5.30;;;4.77;;
9224;SDS011;4647;48.072;11.616;2024-03-22T09:11:31;7.07;;;4.93;;
9224;SDS011;4647;48.072;11.616;2024-03-22T09:13:59;5.40;;;5.00;;
9224;SDS011;4647;48.072;11.616;2024-03-22T09:16:25;6.23;;;5.57;;
9224;SDS011;4647;48.072;11.616;2024-03-22T09:18:52;8.20;;;5.33;;
9224;SDS011;4647;48.072;11.616;2024-03-22T09:21:18;9.43;;;5.80;;
9224;SDS011;4647;48.072;11.616;2024-03-22T09:23:44;7.57;;;5.33;;
9224;SDS011;4647;48.072;11.616;2024-03-22T09:26:10;5.67;;;5.13;;
9224;SDS011;4647;48.072;11.616;2024-03-22T09:28:35;6.67;;;5.27;;
9224;SDS011;4647;48.072;11.616;2024-03-22T09:31:07;5.80;;;5.20;;
9224;SDS011;4647;48.072;11.616;2024-03-22T09:33:33;7.67;;;5.33;;
9224;SDS011;4647;48.072;11.616;2024-03-22T09:35:59;5.67;;;5.17;;
9224;SDS011;4647;48.072;11.616;2024-03-22T09:38:25;5.50;;;4.80;;
9224;SDS011;4647;48.072;11.616;2024-03-22T09:40:51;6.40;;;5.03;;
9224;SDS011;4647;48.072;11.616;2024-03-22T09:43:17;9.13;;;5.07;;
9224;SDS011;4647;48.072;11.616;2024-03-22T09:45:44;5.43;;;4.67;;
9224;SDS011;4647;48.072;11.616;2024-03-22T09:48:13;5.77;;;4.30;;
9224;SDS011;4647;48.072;11.616;2024-03-22T09:50:39;5.40;;;4.40;;
9224;SDS011;4647;48.072;11.616;2024-03-22T09:53:06;5.70;;;4.33;;
9224;SDS011;4647;48.072;11.616;2024-03-22T09:55:35;8.30;;;4.67;;
9224;SDS011;4647;48.072;11.616;2024-03-22T09:58:02;6.43;;;4.40;;
9224;SDS011;4647;48.072;11.616;2024-03-22T10:00:28;8.90;;;4.17;;
9224;SDS011;4647;48.072;11.616;2024-03-22T10:02:55;7.93;;;3.80;;
9224;SDS011;4647;48.072;11.616;2024-03-22T10:05:24;6.50;;;4.10;;
9224;SDS011;4647;48.072;11.616;2024-03-22T10:07:50;6.97;;;3.60;;
9224;SDS011;4647;48.072;11.616;2024-03-22T10:10:16;5.87;;;4.10;;
9224;SDS011;4647;48.072;11.616;2024-03-22T10:12:43;5.77;;;3.60;;
9224;SDS011;4647;48.072;11.616;2024-03-22T10:15:09;5.67;;;4.07;;
9224;SDS011;4647;48.072;11.616;2024-03-22T10:17:35;5.77;;;3.73;;
9224;SDS011;4647;48.072;11.616;2024-03-22T10:20:01;5.70;;;3.70;;
9224;SDS011;4647;48.072;11.616;2024-03-22T10:22:29;6.83;;;3.90;;
9224;SDS011;4647;48.072;11.616;2024-03-22T10:24:55;7.37;;;3.77;;
9224;SDS011;4647;48.072;11.616;2024-03-22T10:27:21;5.57;;;3.70;;
9224;SDS011;4647;48.072;11.616;2024-03-22T10:29:47;6.47;;;3.83;;
9224;SDS011;4647;48.072;11.616;2024-03-22T10:32:13;5.37;;;4.00;;
9224;SDS011;4647;48.072;11.616;2024-03-22T10:34:39;6.47;;;3.93;;
9224;SDS011;4647;48.072;11.616;2024-03-22T10:37:07;5.73;;;3.77;;
9224;SDS011;4647;48.072;11.616;2024-03-22T10:39:38;6.40;;;3.73;;
9224;SDS011;4647;48.072;11.616;2024-03-22T10:42:05;6.03;;;4.10;;
9224;SDS011;4647;48.072;11.616;2024-03-22T10:44:31;4.30;;;3.57;;
9224;SDS011;4647;48.072;11.616;2024-03-22T10:46:57;4.80;;;3.40;;
9224;SDS011;4647;48.072;11.616;2024-03-22T10:49:27;7.47;;;4.00;;
9224;SDS011;4647;48.072;11.616;2024-03-22T10:51:57;5.27;;;3.73;;
9224;SDS011;4647;48.072;11.616;2024-03-22T10:54:27;6.00;;;3.53;;
9224;SDS011;4647;48.072;11.616;2024-03-22T10:57:01;6.30;;;4.10;;
9224;SDS011;4647;48.072;11.616;2024-03-22T10:59:32;7.80;;;3.90;;
9224;SDS011;4647;48.072;11.616;2024-03-22T11:02:02;5.15;;;3.80;;
9224;SDS011;4647;48.072;11.616;2024-03-22T11:04:29;6.93;;;4.23;;
9224;SDS011;4647;48.072;11.616;2024-03-22T11:06:56;4.57;;;4.17;;
9224;SDS011;4647;48.072;11.616;2024-03-22T11:09:22;5.33;;;4.23;;
9224;SDS011;4647;48.072;11.616;2024-03-22T11:11:48;7.93;;;4.57;;
9224;SDS011;4647;48.072;11.616;2024-03-22T11:14:19;6.37;;;4.60;;
9224;SDS011;4647;48.072;11.616;2024-03-22T11:16:45;5.70;;;4.33;;
9224;SDS011;4647;48.072;11.616;2024-03-22T11:19:11;8.43;;;4.43;;
9224;SDS011;4647;48.072;11.616;2024-03-22T11:21:37;5.10;;;4.60;;
9224;SDS011;4647;48.072;11.616;2024-03-22T11:24:03;5.23;;;4.00;;
9224;SDS011;4647;48.072;11.616;2024-03-22T11:26:30;6.77;;;4.80;;
9224;SDS011;4647;48.072;11.616;2024-03-22T11:28:55;4.37;;;3.73;;
9224;SDS011;4647;48.072;11.616;2024-03-22T11:31:24;7.27;;;4.60;;
9224;SDS011;4647;48.072;11.616;2024-03-22T11:33:50;4.77;;;4.27;;
9224;SDS011;4647;48.072;11.616;2024-03-22T11:36:17;4.83;;;4.00;;
9224;SDS011;4647;48.072;11.616;2024-03-22T11:38:43;5.20;;;4.37;;
9224;SDS011;4647;48.072;11.616;2024-03-22T11:41:09;5.23;;;3.70;;
9224;SDS011;4647;48.072;11.616;2024-03-22T11:43:36;4.47;;;3.60;;
9224;SDS011;4647;48.072;11.616;2024-03-22T11:46:02;4.30;;;3.53;;
9224;SDS011;4647;48.072;11.616;2024-03-22T11:48:31;4.20;;;3.40;;
9224;SDS011;4647;48.072;11.616;2024-03-22T11:50:57;4.30;;;3.30;;
9224;SDS011;4647;48.072;11.616;2024-03-22T11:53:23;6.87;;;4.03;;
9224;SDS011;4647;48.072;11.616;2024-03-22T11:55:49;5.00;;;3.80;;
9224;SDS011;4647;48.072;11.616;2024-03-22T11:58:14;7.67;;;4.20;;
9224;SDS011;4647;48.072;11.616;2024-03-22T12:00:41;4.00;;;3.67;;
9224;SDS011;4647;48.072;11.616;2024-03-22T12:03:07;6.80;;;3.77;;
9224;SDS011;4647;48.072;11.616;2024-03-22T12:05:37;4.20;;;3.80;;
9224;SDS011;4647;48.072;11.616;2024-03-22T12:08:03;8.00;;;3.70;;
9224;SDS011;4647;48.072;11.616;2024-03-22T12:10:30;5.07;;;3.80;;
9224;SDS011;4647;48.072;11.616;2024-03-22T12:12:55;4.03;;;3.40;;
9224;SDS011;4647;48.072;11.616;2024-03-22T12:15:21;4.70;;;3.90;;
9224;SDS011;4647;48.072;11.616;2024-03-22T12:17:47;6.20;;;4.00;;
9224;SDS011;4647;48.072;11.616;2024-03-22T12:20:13;5.73;;;3.90;;
9224;SDS011;4647;48.072;11.616;2024-03-22T12:22:42;8.47;;;4.40;;
9224;SDS011;4647;48.072;11.616;2024-03-22T12:25:08;5.50;;;4.27;;
9224;SDS011;4647;48.072;11.616;2024-03-22T12:27:35;5.97;;;3.87;;
9224;SDS011;4647;48.072;11.616;2024-03-22T12:30:01;4.77;;;4.30;;
9224;SDS011;4647;48.072;11.616;2024-03-22T12:32:26;7.10;;;4.97;;
9224;SDS011;4647;48.072;11.616;2024-03-22T12:34:52;4.87;;;4.03;;
9224;SDS011;4647;48.072;11.616;2024-03-22T12:37:18;7.10;;;3.97;;
9224;SDS011;4647;48.072;11.616;2024-03-22T12:39:46;4.80;;;3.77;;
9224;SDS011;4647;48.072;11.616;2024-03-22T12:42:12;4.23;;;3.40;;
9224;SDS011;4647;48.072;11.616;2024-03-22T12:44:38;5.03;;;3.47;;
9224;SDS011;4647;48.072;11.616;2024-03-22T12:47:04;6.47;;;3.50;;
9224;SDS011;4647;48.072;11.616;2024-03-22T12:49:30;4.67;;;3.20;;
9224;SDS011;4647;48.072;11.616;2024-03-22T12:51:56;5.27;;;3.20;;
9224;SDS011;4647;48.072;11.616;2024-03-22T12:54:22;3.50;;;3.10;;
9224;SDS011;4647;48.072;11.616;2024-03-22T12:56:50;4.67;;;3.40;;
9224;SDS011;4647;48.072;11.616;2024-03-22T12:59:16;5.23;;;3.10;;
9224;SDS011;4647;48.072;11.616;2024-03-22T13:01:42;4.77;;;2.67;;
9224;SDS011;4647;48.072;11.616;2024-03-22T13:04:08;5.33;;;4.07;;
9224;SDS011;4647;48.072;11.616;2024-03-22T13:06:33;3.97;;;3.33;;
9224;SDS011;4647;48.072;11.616;2024-03-22T13:08:59;5.40;;;3.30;;
9224;SDS011;4647;48.072;11.616;2024-03-22T13:11:25;3.43;;;2.70;;
9224;SDS011;4647;48.072;11.616;2024-03-22T13:13:54;5.20;;;3.07;;
9224;SDS011;4647;48.072;11.616;2024-03-22T13:16:19;3.10;;;2.77;;
9224;SDS011;4647;48.072;11.616;2024-03-22T13:18:45;3.30;;;2.90;;
9224;SDS011;4647;48.072;11.616;2024-03-22T13:21:11;3.30;;;2.83;;
9224;SDS011;4647;48.072;11.616;2024-03-22T13:23:37;6.17;;;3.10;;
9224;SDS011;4647;48.072;11.616;2024-03-22T13:26:03;3.60;;;3.03;;
9224;SDS011;4647;48.072;11.616;2024-03-22T13:28:29;3.07;;;2.60;;
9224;SDS011;4647;48.072;11.616;2024-03-22T13:31:01;3.50;;;2.80;;
9224;SDS011;4647;48.072;11.616;2024-03-22T13:33:28;5.33;;;2.60;;
9224;SDS011;4647;48.072;11.616;2024-03-22T13:35:53;3.90;;;2.67;;
9224;SDS011;4647;48.072;11.616;2024-03-22T13:38:19;3.80;;;2.60;;
9224;SDS011;4647;48.072;11.616;2024-03-22T13:40:52;3.60;;;2.60;;
9224;SDS011;4647;48.072;11.616;2024-03-22T13:43:18;4.67;;;2.60;;
9224;SDS011;4647;48.072;11.616;2024-03-22T13:45:44;3.60;;;2.70;;
9224;SDS011;4647;48.072;11.616;2024-03-22T13:48:12;3.30;;;2.80;;
9224;SDS011;4647;48.072;11.616;2024-03-22T13:50:38;3.53;;;2.50;;
9224;SDS011;4647;48.072;11.616;2024-03-22T13:53:04;4.13;;;2.40;;
9224;SDS011;4647;48.072;11.616;2024-03-22T13:55:30;4.53;;;2.60;;
9224;SDS011;4647;48.072;11.616;2024-03-22T13:57:55;3.47;;;2.37;;
9224;SDS011;4647;48.072;11.616;2024-03-22T14:00:21;4.03;;;2.60;;
9224;SDS011;4647;48.072;11.616;2024-03-22T14:02:47;3.07;;;2.47;;
9224;SDS011;4647;48.072;11.616;2024-03-22T14:05:16;4.70;;;2.87;;
9224;SDS011;4647;48.072;11.616;2024-03-22T14:07:41;5.63;;;2.43;;
9224;SDS011;4647;48.072;11.616;2024-03-22T14:10:08;4.77;;;2.60;;
9224;SDS011;4647;48.072;11.616;2024-03-22T14:12:34;3.50;;;2.50;;
9224;SDS011;4647;48.072;11.616;2024-03-22T14:15:00;2.97;;;2.43;;
9224;SDS011;4647;48.072;11.616;2024-03-22T14:17:25;5.23;;;2.83;;
9224;SDS011;4647;48.072;11.616;2024-03-22T14:19:51;4.90;;;2.50;;
9224;SDS011;4647;48.072;11.616;2024-03-22T14:22:20;4.30;;;2.37;;
9224;SDS011;4647;48.072;11.616;2024-03-22T14:24:46;3.57;;;2.50;;
9224;SDS011;4647;48.072;11.616;2024-03-22T14:27:11;3.27;;;2.50;;
9224;SDS011;4647;48.072;11.616;2024-03-22T14:29:37;4.80;;;2.30;;
9224;SDS011;4647;48.072;11.616;2024-03-22T14:32:03;3.70;;;2.53;;
9224;SDS011;4647;48.072;11.616;2024-03-22T14:34:30;3.27;;;2.30;;
9224;SDS011;4647;48.072;11.616;2024-03-22T14:36:55;7.30;;;2.67;;
9224;SDS011;4647;48.072;11.616;2024-03-22T14:39:24;2.60;;;2.40;;
9224;SDS011;4647;48.072;11.616;2024-03-22T14:41:50;2.93;;;2.40;;
9224;SDS011;4647;48.072;11.616;2024-03-22T14:44:16;4.40;;;2.73;;